createdAt,value
2018-08-11T00:01:22.579Z,11.50
2018-08-11T00:03:51.114Z,11.60
2018-08-11T00:06:19.769Z,11.60
2018-08-11T00:08:48.279Z,11.60
2018-08-11T00:11:16.809Z,11.50
2018-08-11T00:13:45.357Z,11.50
2018-08-11T00:16:13.955Z,11.60
2018-08-11T00:18:42.513Z,11.60
2018-08-11T00:21:11.099Z,11.60
2018-08-11T00:23:39.601Z,11.60
2018-08-11T00:26:08.107Z,11.60
2018-08-11T00:28:36.666Z,11.40
2018-08-11T00:31:05.419Z,11.40
2018-08-11T00:33:33.898Z,11.30
2018-08-11T00:36:02.411Z,11.20
2018-08-11T00:38:30.960Z,11.20
2018-08-11T00:40:59.286Z,11.10
2018-08-11T00:43:27.567Z,11.10
2018-08-11T00:45:55.840Z,11.10
2018-08-11T00:48:24.126Z,11.10
2018-08-11T00:50:52.414Z,11.20
2018-08-11T00:53:20.690Z,11.10
2018-08-11T00:55:48.999Z,11.00
2018-08-11T00:58:17.274Z,11.00
2018-08-11T01:00:45.573Z,11.00
2018-08-11T01:03:13.882Z,11.00
2018-08-11T01:05:42.152Z,11.10
2018-08-11T01:08:10.434Z,11.20
2018-08-11T01:10:38.756Z,11.20
2018-08-11T01:13:07.039Z,11.10
2018-08-11T01:15:35.337Z,11.20
2018-08-11T01:18:04.131Z,11.00
2018-08-11T01:20:32.442Z,11.00
2018-08-11T01:23:00.736Z,10.90
2018-08-11T01:25:29.040Z,10.90
2018-08-11T01:27:57.312Z,10.90
2018-08-11T01:30:25.606Z,11.00
2018-08-11T01:32:53.947Z,11.00
2018-08-11T01:35:22.242Z,11.00
2018-08-11T01:37:50.562Z,10.90
2018-08-11T01:40:18.877Z,10.80
2018-08-11T01:42:48.198Z,10.90
2018-08-11T01:45:17.037Z,10.90
2018-08-11T01:47:45.370Z,10.80
2018-08-11T01:50:15.298Z,10.80
2018-08-11T01:52:45.851Z,10.70
2018-08-11T01:55:15.574Z,10.60
2018-08-11T01:57:43.936Z,10.50
2018-08-11T02:00:13.732Z,10.50
2018-08-11T02:02:42.126Z,10.50
2018-08-11T02:05:11.606Z,10.60
2018-08-11T02:07:41.290Z,10.50
2018-08-11T02:10:12.186Z,10.50
2018-08-11T02:12:40.501Z,10.60
2018-08-11T02:15:10.248Z,10.60
2018-08-11T02:17:38.516Z,10.90
2018-08-11T02:20:09.148Z,10.70
2018-08-11T02:22:37.422Z,10.60
2018-08-11T02:25:06.623Z,10.60
2018-08-11T02:27:34.942Z,10.60
2018-08-11T02:30:03.272Z,10.60
2018-08-11T02:32:31.596Z,10.60
2018-08-11T02:34:59.882Z,10.60
2018-08-11T02:37:28.170Z,10.60
2018-08-11T02:39:56.459Z,10.60
2018-08-11T02:42:24.729Z,10.50
2018-08-11T02:44:53.025Z,10.50
2018-08-11T02:47:21.305Z,10.40
2018-08-11T02:49:49.580Z,10.40
2018-08-11T02:52:17.914Z,10.40
2018-08-11T02:54:46.194Z,10.40
2018-08-11T02:57:14.460Z,10.40
2018-08-11T02:59:42.742Z,10.40
2018-08-11T03:02:11.026Z,10.50
2018-08-11T03:04:39.311Z,10.50
2018-08-11T03:07:07.593Z,10.60
2018-08-11T03:09:35.908Z,10.50
2018-08-11T03:12:04.216Z,10.50
2018-08-11T03:14:32.547Z,10.40
2018-08-11T03:17:00.813Z,10.50
2018-08-11T03:19:29.094Z,10.50
2018-08-11T03:21:57.364Z,10.40
2018-08-11T03:24:25.650Z,10.40
2018-08-11T03:26:53.963Z,10.50
2018-08-11T03:29:22.237Z,10.50
2018-08-11T03:31:50.511Z,10.60
2018-08-11T03:34:18.776Z,10.60
2018-08-11T03:36:47.052Z,10.60
2018-08-11T03:39:15.331Z,10.60
2018-08-11T03:41:43.617Z,10.50
2018-08-11T03:44:11.894Z,10.50
2018-08-11T03:46:40.218Z,10.50
2018-08-11T03:49:08.501Z,10.40
2018-08-11T03:51:36.777Z,10.30
2018-08-11T03:54:05.107Z,10.20
2018-08-11T03:56:33.435Z,10.20
2018-08-11T03:59:01.746Z,10.10
2018-08-11T04:01:30.072Z,10.00
2018-08-11T04:03:58.336Z,9.90
2018-08-11T04:06:26.607Z,9.90
2018-08-11T04:08:54.883Z,9.90
2018-08-11T04:11:23.165Z,9.80
2018-08-11T04:13:51.438Z,9.70
2018-08-11T04:16:19.754Z,9.70
2018-08-11T04:18:48.032Z,9.80
2018-08-11T04:21:16.360Z,9.80
2018-08-11T04:23:44.632Z,9.80
2018-08-11T04:26:12.914Z,9.80
2018-08-11T04:28:41.181Z,9.80
2018-08-11T04:31:09.465Z,9.80
2018-08-11T04:33:37.733Z,9.90
2018-08-11T04:36:06.010Z,9.90
2018-08-11T04:38:34.294Z,9.90
2018-08-11T04:41:02.616Z,10.00
2018-08-11T04:43:30.891Z,10.00
2018-08-11T04:45:59.169Z,10.10
2018-08-11T04:48:27.441Z,10.20
2018-08-11T04:50:55.741Z,10.20
2018-08-11T04:53:24.002Z,10.30
2018-08-11T04:55:52.275Z,10.30
2018-08-11T04:58:20.603Z,10.30
2018-08-11T05:00:48.937Z,10.40
2018-08-11T05:03:17.170Z,10.50
2018-08-11T05:05:45.470Z,10.60
2018-08-11T05:08:13.740Z,10.80
2018-08-11T05:10:42.017Z,10.80
2018-08-11T05:13:10.289Z,10.90
2018-08-11T05:15:38.558Z,11.10
2018-08-11T05:18:06.841Z,11.10
2018-08-11T05:20:35.119Z,11.20
2018-08-11T05:23:03.398Z,11.30
2018-08-11T05:25:31.685Z,11.40
2018-08-11T05:27:59.990Z,11.50
2018-08-11T05:30:28.303Z,11.70
2018-08-11T05:32:56.594Z,11.80
2018-08-11T05:35:24.907Z,12.00
2018-08-11T05:37:53.210Z,12.10
2018-08-11T05:40:21.500Z,12.10
2018-08-11T05:42:49.808Z,12.20
2018-08-11T05:45:18.087Z,12.50
2018-08-11T05:47:46.418Z,12.80
2018-08-11T05:50:14.688Z,12.90
2018-08-11T05:52:42.976Z,12.90
2018-08-11T05:55:11.293Z,13.00
2018-08-11T05:57:39.560Z,13.30
2018-08-11T06:00:09.166Z,13.60
2018-08-11T06:02:37.489Z,13.90
2018-08-11T06:05:06.394Z,14.10
2018-08-11T06:07:34.734Z,14.30
2018-08-11T06:10:03.198Z,14.50
2018-08-11T06:12:31.487Z,14.40
2018-08-11T06:14:59.757Z,14.50
2018-08-11T06:17:28.079Z,14.50
2018-08-11T06:19:56.366Z,14.60
2018-08-11T06:22:24.654Z,14.90
2018-08-11T06:24:52.971Z,15.30
2018-08-11T06:27:21.244Z,15.90
2018-08-11T06:29:49.573Z,16.60
2018-08-11T06:32:17.972Z,17.60
2018-08-11T06:34:46.126Z,18.30
2018-08-11T06:37:14.405Z,19.10
2018-08-11T06:39:42.710Z,19.80
2018-08-11T06:42:10.995Z,20.50
2018-08-11T06:44:39.256Z,20.80
2018-08-11T06:47:07.586Z,22.00
2018-08-11T06:49:35.802Z,23.00
2018-08-11T06:52:04.290Z,24.00
2018-08-11T06:54:32.781Z,24.50
2018-08-11T06:57:01.355Z,25.10
2018-08-11T06:59:29.863Z,25.60
2018-08-11T07:01:58.292Z,25.60
2018-08-11T07:04:26.753Z,25.30
2018-08-11T07:06:55.278Z,26.60
2018-08-11T07:09:30.521Z,25.20
2018-08-11T07:11:59.059Z,25.30
2018-08-11T07:14:27.566Z,25.90
2018-08-11T07:16:56.115Z,25.50
2018-08-11T07:19:24.740Z,25.10
2018-08-11T07:21:53.245Z,26.50
2018-08-11T07:24:21.816Z,25.70
2018-08-11T07:26:50.349Z,25.00
2018-08-11T07:29:18.880Z,25.00
2018-08-11T07:31:47.378Z,26.80
2018-08-11T07:34:15.962Z,26.80
2018-08-11T07:36:46.066Z,25.70
2018-08-11T07:39:14.556Z,25.00
2018-08-11T07:41:43.163Z,27.10
2018-08-11T07:44:11.722Z,26.90
2018-08-11T07:46:40.256Z,24.90
2018-08-11T07:49:08.939Z,23.90
2018-08-11T07:51:37.514Z,24.90
2018-08-11T07:54:06.060Z,24.70
2018-08-11T07:56:34.605Z,25.50
2018-08-11T07:59:03.173Z,24.90
2018-08-11T08:01:31.759Z,24.00
2018-08-11T08:04:00.254Z,24.10
2018-08-11T08:06:28.845Z,25.70
2018-08-11T08:08:57.395Z,25.60
2018-08-11T08:11:25.911Z,25.50
2018-08-11T08:13:54.517Z,25.70
2018-08-11T08:16:23.027Z,26.00
2018-08-11T08:18:51.595Z,26.00
2018-08-11T08:21:20.157Z,26.20
2018-08-11T08:23:48.688Z,25.30
2018-08-11T08:26:17.395Z,23.50
2018-08-11T08:28:45.743Z,23.50
2018-08-11T08:31:14.230Z,23.40
2018-08-11T08:33:42.720Z,22.60
2018-08-11T08:36:11.386Z,22.40
2018-08-11T08:38:39.883Z,21.90
2018-08-11T08:41:08.375Z,22.00
2018-08-11T08:43:36.909Z,23.60
2018-08-11T08:46:05.640Z,24.80
2018-08-11T08:48:34.220Z,27.10
2018-08-11T08:51:03.038Z,26.60
2018-08-11T08:53:31.510Z,26.10
2018-08-11T08:56:00.083Z,25.40
2018-08-11T08:58:28.659Z,26.70
2018-08-11T09:00:57.164Z,27.30
2018-08-11T09:03:25.748Z,26.80
2018-08-11T09:05:54.327Z,26.20
2018-08-11T09:08:22.922Z,26.50
2018-08-11T09:10:51.595Z,26.60
2018-08-11T09:13:20.070Z,25.50
2018-08-11T09:15:48.582Z,25.70
2018-08-11T09:18:17.119Z,26.30
2018-08-11T09:20:45.683Z,26.40
2018-08-11T09:23:14.210Z,26.30
2018-08-11T09:25:42.783Z,26.10
2018-08-11T09:28:11.229Z,26.90
2018-08-11T09:30:39.692Z,28.30
2018-08-11T09:33:08.198Z,27.50
2018-08-11T09:35:36.768Z,27.00
2018-08-11T09:38:05.319Z,27.20
2018-08-11T09:40:33.876Z,28.90
2018-08-11T09:43:02.481Z,29.10
2018-08-11T09:45:31.059Z,29.40
2018-08-11T09:47:59.637Z,29.70
2018-08-11T09:50:28.182Z,29.20
2018-08-11T09:52:56.669Z,28.60
2018-08-11T09:55:25.103Z,28.30
2018-08-11T09:57:53.588Z,27.20
2018-08-11T10:00:27.592Z,26.80
2018-08-11T10:02:56.162Z,27.40
2018-08-11T10:05:24.719Z,27.40
2018-08-11T10:07:53.297Z,29.00
2018-08-11T10:10:21.846Z,29.30
2018-08-11T10:12:50.385Z,29.20
2018-08-11T10:15:18.900Z,29.50
2018-08-11T10:17:47.465Z,30.40
2018-08-11T10:20:15.958Z,30.70
2018-08-11T10:22:44.647Z,30.20
2018-08-11T10:25:13.171Z,30.80
2018-08-11T10:27:41.637Z,31.00
2018-08-11T10:30:10.438Z,29.30
2018-08-11T10:32:38.963Z,28.40
2018-08-11T10:35:07.621Z,27.60
2018-08-11T10:37:36.211Z,27.90
2018-08-11T10:40:04.900Z,28.10
2018-08-11T10:42:33.510Z,29.10
2018-08-11T10:45:02.032Z,29.80
2018-08-11T10:47:30.544Z,29.70
2018-08-11T10:49:59.101Z,30.70
2018-08-11T10:52:27.663Z,30.50
2018-08-11T10:54:56.211Z,30.60
2018-08-11T10:57:24.762Z,31.80
2018-08-11T10:59:53.355Z,31.00
2018-08-11T11:02:21.869Z,30.20
2018-08-11T11:04:50.525Z,27.80
2018-08-11T11:07:21.605Z,28.60
2018-08-11T11:09:50.112Z,29.60
2018-08-11T11:12:18.648Z,29.50
2018-08-11T11:14:47.161Z,29.40
2018-08-11T11:17:15.715Z,29.10
2018-08-11T11:19:44.142Z,29.30
2018-08-11T11:22:12.618Z,29.30
2018-08-11T11:24:41.198Z,28.20
2018-08-11T11:27:09.745Z,29.20
2018-08-11T11:29:38.531Z,30.30
2018-08-11T11:32:07.074Z,30.20
2018-08-11T11:34:35.583Z,28.60
2018-08-11T11:37:04.277Z,28.40
2018-08-11T11:39:32.905Z,27.10
2018-08-11T11:42:01.459Z,26.10
2018-08-11T11:44:29.948Z,25.80
2018-08-11T11:46:58.510Z,27.00
2018-08-11T11:49:26.975Z,28.30
2018-08-11T11:51:55.546Z,29.00
2018-08-11T11:54:24.065Z,28.30
2018-08-11T11:56:52.604Z,29.00
2018-08-11T11:59:21.029Z,29.40
2018-08-11T12:01:49.534Z,28.60
2018-08-11T12:04:18.046Z,30.00
2018-08-11T12:06:46.568Z,29.50
2018-08-11T12:09:15.089Z,29.60
2018-08-11T12:11:43.470Z,30.20
2018-08-11T12:14:12.046Z,32.20
2018-08-11T12:16:40.442Z,31.80
2018-08-11T12:19:08.995Z,30.30
2018-08-11T12:21:37.491Z,29.80
2018-08-11T12:24:06.621Z,29.80
2018-08-11T12:26:35.188Z,29.40
2018-08-11T12:29:03.757Z,29.00
2018-08-11T12:31:32.350Z,29.00
2018-08-11T12:34:00.942Z,29.20
2018-08-11T12:36:29.568Z,29.40
2018-08-11T12:38:58.301Z,28.80
2018-08-11T12:41:33.310Z,28.50
2018-08-11T12:44:02.073Z,28.50
2018-08-11T12:46:30.931Z,29.00
2018-08-11T12:48:59.685Z,29.70
2018-08-11T12:51:28.809Z,28.90
2018-08-11T12:53:57.607Z,28.50
2018-08-11T12:56:26.322Z,29.30
2018-08-11T12:58:54.992Z,29.60
2018-08-11T13:01:24.124Z,29.50
2018-08-11T13:06:32.110Z,30.90
2018-08-11T13:09:00.554Z,31.90
2018-08-11T13:11:29.028Z,30.50
2018-08-11T13:13:57.664Z,30.50
2018-08-11T13:16:26.447Z,29.60
2018-08-11T13:18:55.129Z,29.80
2018-08-11T13:21:23.745Z,30.60
2018-08-11T13:23:52.652Z,31.30
2018-08-11T13:26:22.607Z,32.00
2018-08-11T13:28:52.012Z,31.30
2018-08-11T13:31:21.127Z,31.30
2018-08-11T13:33:51.187Z,32.20
2018-08-11T13:36:20.292Z,32.40
2018-08-11T13:38:48.992Z,32.60
2018-08-11T13:41:17.993Z,31.70
2018-08-11T13:43:46.841Z,30.60
2018-08-11T13:46:15.801Z,32.60
2018-08-11T13:48:44.277Z,32.30
2018-08-11T13:51:13.025Z,31.70
2018-08-11T13:53:41.580Z,31.00
2018-08-11T13:56:10.030Z,29.40
2018-08-11T13:58:38.440Z,27.70
2018-08-11T14:01:06.908Z,27.70
2018-08-11T14:03:35.368Z,28.90
2018-08-11T14:06:03.853Z,30.30
2018-08-11T14:08:32.268Z,28.60
2018-08-11T14:11:00.648Z,29.20
2018-08-11T14:13:30.239Z,29.70
2018-08-11T14:15:58.509Z,29.60
2018-08-11T14:18:26.789Z,29.80
2018-08-11T14:20:55.086Z,30.10
2018-08-11T14:23:23.384Z,29.90
2018-08-11T14:25:51.755Z,28.70
2018-08-11T14:28:20.683Z,29.40
2018-08-11T14:30:48.989Z,29.60
2018-08-11T14:33:17.272Z,29.80
2018-08-11T14:35:45.554Z,29.60
2018-08-11T14:38:13.838Z,29.80
2018-08-11T14:40:42.113Z,29.70
2018-08-11T14:43:10.409Z,29.40
2018-08-11T14:45:38.723Z,29.40
2018-08-11T14:48:07.095Z,28.30
2018-08-11T14:50:35.331Z,27.80
2018-08-11T14:53:03.674Z,27.00
2018-08-11T14:55:31.960Z,26.40
2018-08-11T14:58:00.493Z,26.40
2018-08-11T15:00:28.777Z,26.40
2018-08-11T15:02:57.120Z,26.30
2018-08-11T15:05:25.409Z,26.20
2018-08-11T15:07:53.698Z,26.10
2018-08-11T15:10:21.969Z,26.10
2018-08-11T15:12:50.277Z,26.10
2018-08-11T15:15:18.596Z,25.90
2018-08-11T15:17:46.884Z,25.80
2018-08-11T15:20:15.189Z,25.80
2018-08-11T15:22:43.624Z,25.80
2018-08-11T15:25:11.961Z,25.80
2018-08-11T15:27:40.512Z,25.80
2018-08-11T15:30:10.884Z,25.70
2018-08-11T15:32:39.238Z,25.60
2018-08-11T15:35:08.532Z,25.40
2018-08-11T15:37:36.832Z,25.30
2018-08-11T15:40:05.634Z,25.30
2018-08-11T15:42:34.024Z,25.20
2018-08-11T15:45:02.560Z,25.10
2018-08-11T15:47:30.898Z,24.80
2018-08-11T15:49:59.418Z,24.60
2018-08-11T15:52:27.707Z,24.80
2018-08-11T15:54:56.043Z,24.70
2018-08-11T15:57:24.313Z,24.60
2018-08-11T15:59:52.610Z,24.60
2018-08-11T16:02:20.931Z,24.70
2018-08-11T16:04:49.297Z,24.40
2018-08-11T16:07:17.674Z,24.40
2018-08-11T16:09:45.941Z,24.50
2018-08-11T16:12:14.245Z,24.80
2018-08-11T16:14:42.534Z,24.80
2018-08-11T16:17:10.816Z,24.60
2018-08-11T16:19:39.130Z,24.60
2018-08-11T16:22:07.426Z,24.40
2018-08-11T16:24:35.721Z,24.40
2018-08-11T16:27:04.101Z,24.20
2018-08-11T16:29:32.569Z,24.20
2018-08-11T16:32:00.836Z,24.00
2018-08-11T16:34:29.125Z,24.00
2018-08-11T16:36:57.424Z,23.90
2018-08-11T16:39:26.686Z,23.90
2018-08-11T16:41:54.986Z,23.90
2018-08-11T16:44:23.269Z,23.80
2018-08-11T16:46:51.548Z,23.80
2018-08-11T16:49:19.868Z,23.80
2018-08-11T16:51:48.185Z,23.80
2018-08-11T16:54:16.472Z,23.50
2018-08-11T16:56:44.756Z,23.40
2018-08-11T16:59:13.042Z,23.30
2018-08-11T17:01:41.395Z,23.20
2018-08-11T17:04:09.817Z,23.10
2018-08-11T17:06:38.192Z,23.00
2018-08-11T17:09:08.858Z,23.00
2018-08-11T17:11:37.174Z,22.90
2018-08-11T17:14:06.219Z,22.90
2018-08-11T17:16:34.516Z,22.70
2018-08-11T17:19:02.833Z,22.60
2018-08-11T17:21:31.151Z,22.50
2018-08-11T17:23:59.796Z,22.40
2018-08-11T17:26:28.091Z,22.40
2018-08-11T17:28:56.407Z,22.20
2018-08-11T17:31:24.693Z,22.10
2018-08-11T17:33:52.950Z,22.00
2018-08-11T17:36:21.241Z,21.90
2018-08-11T17:38:49.654Z,21.80
2018-08-11T17:41:17.883Z,21.70
2018-08-11T17:43:46.201Z,21.60
2018-08-11T17:46:14.509Z,21.50
2018-08-11T17:48:42.785Z,21.40
2018-08-11T17:51:11.153Z,21.30
2018-08-11T17:53:39.432Z,21.10
2018-08-11T17:56:07.737Z,20.90
2018-08-11T17:58:36.040Z,20.90
2018-08-11T18:01:04.334Z,20.70
2018-08-11T18:03:32.606Z,20.60
2018-08-11T18:06:00.925Z,20.50
2018-08-11T18:08:29.217Z,20.40
2018-08-11T18:10:57.551Z,20.20
2018-08-11T18:13:25.833Z,20.00
2018-08-11T18:15:54.109Z,19.90
2018-08-11T18:18:24.591Z,19.80
2018-08-11T18:20:52.920Z,19.60
2018-08-11T18:23:21.211Z,19.40
2018-08-11T18:25:49.497Z,19.30
2018-08-11T18:28:17.813Z,19.10
2018-08-11T18:30:46.085Z,18.80
2018-08-11T18:33:14.379Z,18.70
2018-08-11T18:35:42.727Z,18.50
2018-08-11T18:38:11.176Z,18.30
2018-08-11T18:40:39.457Z,18.20
2018-08-11T18:43:07.753Z,18.00
2018-08-11T18:45:36.037Z,17.80
2018-08-11T18:48:04.515Z,17.70
2018-08-11T18:50:32.835Z,17.60
2018-08-11T18:53:01.149Z,17.40
2018-08-11T18:55:29.494Z,17.30
2018-08-11T18:57:57.975Z,17.20
2018-08-11T19:00:26.265Z,17.10
2018-08-11T19:02:54.580Z,16.90
2018-08-11T19:05:22.873Z,16.80
2018-08-11T19:07:51.165Z,16.70
2018-08-11T19:10:19.496Z,16.60
2018-08-11T19:12:47.779Z,16.50
2018-08-11T19:15:16.054Z,16.50
2018-08-11T19:17:44.361Z,16.40
2018-08-11T19:20:13.780Z,16.30
2018-08-11T19:22:42.153Z,16.30
2018-08-11T19:25:11.455Z,16.20
2018-08-11T19:27:39.965Z,16.20
2018-08-11T19:30:09.813Z,16.20
2018-08-11T19:32:38.692Z,16.10
2018-08-11T19:35:07.082Z,16.10
2018-08-11T19:37:35.810Z,15.90
2018-08-11T19:40:05.514Z,15.90
2018-08-11T19:42:33.801Z,15.90
2018-08-11T19:45:02.317Z,15.80
2018-08-11T19:47:30.663Z,15.70
2018-08-11T19:49:59.012Z,15.60
2018-08-11T19:52:27.333Z,15.60
2018-08-11T19:54:55.646Z,15.50
2018-08-11T19:57:23.942Z,15.50
2018-08-11T19:59:52.217Z,15.40
2018-08-11T20:02:20.514Z,15.30
2018-08-11T20:04:48.802Z,15.30
2018-08-11T20:07:17.347Z,15.40
2018-08-11T20:09:45.604Z,15.50
2018-08-11T20:12:13.938Z,15.40
2018-08-11T20:14:42.237Z,15.30
2018-08-11T20:17:10.529Z,15.30
2018-08-11T20:19:38.830Z,15.30
2018-08-11T20:22:12.391Z,15.30
2018-08-11T20:24:40.720Z,15.20
2018-08-11T20:27:09.105Z,15.10
2018-08-11T20:29:38.718Z,14.90
2018-08-11T20:32:07.009Z,15.00
2018-08-11T20:34:35.321Z,15.00
2018-08-11T20:37:03.658Z,15.00
2018-08-11T20:39:31.966Z,14.90
2018-08-11T20:42:00.275Z,14.80
2018-08-11T20:44:28.615Z,14.80
2018-08-11T20:46:56.925Z,14.70
2018-08-11T20:49:25.205Z,14.70
2018-08-11T20:51:53.535Z,14.70
2018-08-11T20:54:21.877Z,14.70
2018-08-11T20:56:50.219Z,14.70
2018-08-11T20:59:18.514Z,14.50
2018-08-11T21:01:47.080Z,14.60
2018-08-11T21:04:15.364Z,14.50
2018-08-11T21:06:43.826Z,14.50
2018-08-11T21:09:13.253Z,14.40
2018-08-11T21:11:41.761Z,14.30
2018-08-11T21:14:10.740Z,14.30
2018-08-11T21:16:39.116Z,14.20
2018-08-11T21:19:07.453Z,14.20
2018-08-11T21:21:35.914Z,14.10
2018-08-11T21:24:04.323Z,14.00
2018-08-11T21:26:32.693Z,13.80
2018-08-11T21:29:01.003Z,13.80
2018-08-11T21:31:29.396Z,13.70
2018-08-11T21:33:57.697Z,13.60
2018-08-11T21:36:25.980Z,13.70
2018-08-11T21:38:54.337Z,13.70
2018-08-11T21:41:22.722Z,13.70
2018-08-11T21:43:51.008Z,13.60
2018-08-11T21:46:19.280Z,13.50
2018-08-11T21:48:47.600Z,13.50
2018-08-11T21:51:15.905Z,13.40
2018-08-11T21:53:44.214Z,13.30
2018-08-11T21:56:12.527Z,13.30
2018-08-11T21:58:40.804Z,13.20
2018-08-11T22:01:13.629Z,13.20
2018-08-11T22:03:42.839Z,13.10
2018-08-11T22:06:11.844Z,13.00
2018-08-11T22:08:40.486Z,12.90
2018-08-11T22:11:08.845Z,12.80
2018-08-11T22:13:37.142Z,12.70
2018-08-11T22:16:06.274Z,12.70
2018-08-11T22:18:34.960Z,12.70
2018-08-11T22:21:03.261Z,12.60
2018-08-11T22:23:31.570Z,12.60
2018-08-11T22:25:59.857Z,12.50
2018-08-11T22:28:28.175Z,12.60
2018-08-11T22:30:56.490Z,12.60
2018-08-11T22:33:24.845Z,12.50
2018-08-11T22:35:53.232Z,12.50
2018-08-11T22:38:21.597Z,12.50
2018-08-11T22:40:49.923Z,12.40
2018-08-11T22:43:18.288Z,12.40
2018-08-11T22:45:46.600Z,12.30
2018-08-11T22:48:14.916Z,12.20
2018-08-11T22:50:43.200Z,12.20
2018-08-11T22:53:11.482Z,12.10
2018-08-11T22:55:39.759Z,12.00
2018-08-11T22:58:08.049Z,12.00
2018-08-11T23:00:36.317Z,12.00
2018-08-11T23:03:05.824Z,12.00
2018-08-11T23:05:34.161Z,12.00
2018-08-11T23:08:02.514Z,11.90
2018-08-11T23:10:30.780Z,11.80
2018-08-11T23:12:59.098Z,11.70
2018-08-11T23:15:27.400Z,11.70
2018-08-11T23:17:55.680Z,11.60
2018-08-11T23:20:25.003Z,11.60
2018-08-11T23:22:53.356Z,11.60
2018-08-11T23:25:21.686Z,11.60
2018-08-11T23:27:50.549Z,11.60
2018-08-11T23:30:18.846Z,11.60
2018-08-11T23:32:47.152Z,11.60
2018-08-11T23:35:15.579Z,11.50
2018-08-11T23:37:44.123Z,11.50
2018-08-11T23:40:12.519Z,11.60
2018-08-11T23:42:40.934Z,11.70
2018-08-11T23:45:11.534Z,11.80
2018-08-11T23:47:40.300Z,11.90
2018-08-11T23:50:09.339Z,11.80
2018-08-11T23:52:37.839Z,11.70
2018-08-11T23:55:06.777Z,11.60
2018-08-11T23:57:35.281Z,11.60
